createdAt,value
2023-12-23T00:00:15.523Z,1006.94
2023-12-23T00:01:15.559Z,1006.96
2023-12-23T00:02:15.587Z,1006.94
2023-12-23T00:03:15.478Z,1007.00
2023-12-23T00:04:15.457Z,1007.08
2023-12-23T00:05:15.516Z,1007.11
2023-12-23T00:06:15.554Z,1007.11
2023-12-23T00:07:15.420Z,1007.10
2023-12-23T00:08:15.434Z,1007.10
2023-12-23T00:09:15.419Z,1007.09
2023-12-23T00:10:15.396Z,1007.13
2023-12-23T00:11:15.473Z,1007.17
2023-12-23T00:12:15.421Z,1007.12
2023-12-23T00:13:15.349Z,1007.13
2023-12-23T00:14:15.368Z,1007.20
2023-12-23T00:15:15.340Z,1007.23
2023-12-23T00:16:15.337Z,1007.18
2023-12-23T00:17:15.429Z,1007.29
2023-12-23T00:18:15.391Z,1007.16
2023-12-23T00:19:15.415Z,1007.26
2023-12-23T00:20:15.334Z,1007.27
2023-12-23T00:21:15.264Z,1007.10
2023-12-23T00:22:15.234Z,1007.21
2023-12-23T00:23:15.303Z,1007.20
2023-12-23T00:24:15.234Z,1007.18
2023-12-23T00:25:15.193Z,1007.19
2023-12-23T00:26:15.192Z,1007.21
2023-12-23T00:27:15.183Z,1007.25
2023-12-23T00:28:15.135Z,1007.29
2023-12-23T00:29:15.207Z,1007.26
2023-12-23T00:30:15.170Z,1007.26
2023-12-23T00:31:15.082Z,1007.22
2023-12-23T00:32:15.108Z,1007.20
2023-12-23T00:33:15.151Z,1007.25
2023-12-23T00:34:15.066Z,1007.23
2023-12-23T00:35:15.104Z,1007.19
2023-12-23T00:36:15.021Z,1007.21
2023-12-23T00:37:15.073Z,1007.16
2023-12-23T00:38:15.107Z,1007.19
2023-12-23T00:39:15.016Z,1007.19
2023-12-23T00:40:15.013Z,1007.17
2023-12-23T00:41:15.092Z,1007.12
2023-12-23T00:42:14.971Z,1007.15
2023-12-23T00:43:14.959Z,1007.17
2023-12-23T00:44:15.027Z,1007.16
2023-12-23T00:45:14.893Z,1007.15
2023-12-23T00:46:14.883Z,1007.10
2023-12-23T00:47:15.012Z,1007.10
2023-12-23T00:48:14.977Z,1007.17
2023-12-23T00:49:14.882Z,1007.21
2023-12-23T00:50:14.897Z,1007.30
2023-12-23T00:51:14.819Z,1007.22
2023-12-23T00:52:14.814Z,1007.33
2023-12-23T00:53:14.979Z,1007.31
2023-12-23T00:54:14.787Z,1007.24
2023-12-23T00:55:14.797Z,1007.24
2023-12-23T00:56:14.833Z,1007.22
2023-12-23T00:57:14.737Z,1007.19
2023-12-23T00:58:14.710Z,1007.27
2023-12-23T00:59:14.849Z,1007.24
2023-12-23T01:00:14.680Z,1007.21
2023-12-23T01:01:14.675Z,1007.22
2023-12-23T01:02:14.754Z,1007.17
2023-12-23T01:03:14.704Z,1007.13
2023-12-23T01:04:14.644Z,1007.15
2023-12-23T01:05:14.706Z,1007.15
2023-12-23T01:06:14.672Z,1007.14
2023-12-23T01:07:14.631Z,1007.14
2023-12-23T01:08:14.653Z,1007.23
2023-12-23T01:09:14.562Z,1007.29
2023-12-23T01:10:14.613Z,1007.31
2023-12-23T01:11:14.660Z,1007.28
2023-12-23T01:12:14.558Z,1007.30
2023-12-23T01:13:14.554Z,1007.33
2023-12-23T01:14:14.641Z,1007.30
2023-12-23T01:15:14.545Z,1007.33
2023-12-23T01:16:14.554Z,1007.30
2023-12-23T01:17:14.511Z,1007.27
2023-12-23T01:18:15.480Z,1007.27
2023-12-23T01:19:14.482Z,1007.24
2023-12-23T01:20:14.474Z,1007.25
2023-12-23T01:21:14.418Z,1007.20
2023-12-23T01:22:14.408Z,1007.21
2023-12-23T01:23:14.503Z,1007.13
2023-12-23T01:24:14.394Z,1007.15
2023-12-23T01:25:15.379Z,1007.22
2023-12-23T01:26:14.438Z,1007.25
2023-12-23T01:27:14.327Z,1007.25
2023-12-23T01:28:14.335Z,1007.25
2023-12-23T01:29:14.369Z,1007.26
2023-12-23T01:30:14.354Z,1007.23
2023-12-23T01:31:14.277Z,1007.25
2023-12-23T01:32:14.327Z,1007.31
2023-12-23T01:33:14.336Z,1007.27
2023-12-23T01:34:14.242Z,1007.28
2023-12-23T01:35:14.279Z,1007.30
2023-12-23T01:36:14.268Z,1007.31
2023-12-23T01:37:14.185Z,1007.31
2023-12-23T01:38:14.256Z,1007.38
2023-12-23T01:39:14.188Z,1007.40
2023-12-23T01:40:14.183Z,1007.42
2023-12-23T01:41:14.244Z,1007.33
2023-12-23T01:42:14.134Z,1007.33
2023-12-23T01:43:14.099Z,1007.33
2023-12-23T01:44:14.265Z,1007.22
2023-12-23T01:45:14.094Z,1007.14
2023-12-23T01:46:14.114Z,1007.16
2023-12-23T01:47:14.133Z,1007.13
2023-12-23T01:48:14.146Z,1007.15
2023-12-23T01:49:14.143Z,1007.13
2023-12-23T01:50:14.036Z,1007.16
2023-12-23T01:51:14.020Z,1007.16
2023-12-23T01:52:13.976Z,1007.19
2023-12-23T01:53:14.017Z,1007.17
2023-12-23T01:54:13.967Z,1007.12
2023-12-23T01:55:13.959Z,1007.09
2023-12-23T01:56:13.989Z,1007.19
2023-12-23T01:57:13.922Z,1007.17
2023-12-23T01:58:13.936Z,1007.22
2023-12-23T01:59:13.985Z,1007.21
2023-12-23T02:00:13.896Z,1007.11
2023-12-23T02:01:13.938Z,1007.04
2023-12-23T02:02:14.028Z,1007.10
2023-12-23T02:03:13.883Z,1007.13
2023-12-23T02:04:13.820Z,1007.13
2023-12-23T02:05:13.887Z,1007.16
2023-12-23T02:06:13.846Z,1007.12
2023-12-23T02:07:13.812Z,1007.08
2023-12-23T02:08:13.949Z,1007.10
2023-12-23T02:09:13.758Z,1007.12
2023-12-23T02:10:13.772Z,1007.13
2023-12-23T02:11:13.799Z,1007.13
2023-12-23T02:12:13.748Z,1007.21
2023-12-23T02:13:14.546Z,1007.15
2023-12-23T02:14:13.752Z,1007.12
2023-12-23T02:15:13.723Z,1007.04
2023-12-23T02:16:13.672Z,1007.10
2023-12-23T02:17:13.683Z,1007.09
2023-12-23T02:18:13.703Z,1007.15
2023-12-23T02:19:13.696Z,1007.12
2023-12-23T02:20:13.639Z,1007.10
2023-12-23T02:21:13.642Z,1007.12
2023-12-23T02:22:13.667Z,1007.11
2023-12-23T02:23:13.638Z,1007.09
2023-12-23T02:24:13.591Z,1007.04
2023-12-23T02:25:13.564Z,1007.01
2023-12-23T02:26:13.658Z,1006.97
2023-12-23T02:27:13.523Z,1006.99
2023-12-23T02:28:13.557Z,1006.95
2023-12-23T02:29:13.522Z,1006.91
2023-12-23T02:30:13.525Z,1006.99
2023-12-23T02:31:13.486Z,1006.98
2023-12-23T02:32:13.535Z,1006.98
2023-12-23T02:33:13.528Z,1006.91
2023-12-23T02:34:13.438Z,1006.92
2023-12-23T02:35:13.470Z,1006.86
2023-12-23T02:36:13.429Z,1006.79
2023-12-23T02:37:13.380Z,1006.76
2023-12-23T02:38:13.453Z,1006.73
2023-12-23T02:39:15.436Z,1006.72
2023-12-23T02:40:13.367Z,1006.75
2023-12-23T02:41:13.437Z,1006.71
2023-12-23T02:42:13.330Z,1006.75
2023-12-23T02:43:13.353Z,1006.78
2023-12-23T02:44:13.374Z,1006.78
2023-12-23T02:45:13.309Z,1006.73
2023-12-23T02:46:13.277Z,1006.65
2023-12-23T02:47:13.308Z,1006.63
2023-12-23T02:48:13.407Z,1006.64
2023-12-23T02:49:13.273Z,1006.61
2023-12-23T02:50:13.293Z,1006.51
2023-12-23T02:51:13.179Z,1006.45
2023-12-23T02:52:13.180Z,1006.46
2023-12-23T02:53:13.238Z,1006.44
2023-12-23T02:54:13.176Z,1006.38
2023-12-23T02:55:13.175Z,1006.36
2023-12-23T02:56:13.202Z,1006.35
2023-12-23T02:57:13.107Z,1006.37
2023-12-23T02:58:13.099Z,1006.33
2023-12-23T02:59:13.174Z,1006.31
2023-12-23T03:00:13.135Z,1006.29
2023-12-23T03:01:13.076Z,1006.32
2023-12-23T03:02:13.129Z,1006.34
2023-12-23T03:03:13.365Z,1006.28
2023-12-23T03:04:13.030Z,1006.28
2023-12-23T03:05:13.107Z,1006.28
2023-12-23T03:06:13.069Z,1006.30
2023-12-23T03:07:12.966Z,1006.23
2023-12-23T03:08:13.062Z,1006.20
2023-12-23T03:09:12.958Z,1006.13
2023-12-23T03:10:12.931Z,1006.10
2023-12-23T03:11:12.924Z,1006.06
2023-12-23T03:12:12.914Z,1006.09
2023-12-23T03:13:12.911Z,1006.07
2023-12-23T03:14:12.971Z,1006.11
2023-12-23T03:15:12.875Z,1006.10
2023-12-23T03:16:12.857Z,1006.12
2023-12-23T03:17:13.013Z,1006.09
2023-12-23T03:18:12.923Z,1006.11
2023-12-23T03:19:12.873Z,1006.02
2023-12-23T03:20:12.898Z,1006.00
2023-12-23T03:21:12.770Z,1005.95
2023-12-23T03:22:12.780Z,1005.95
2023-12-23T03:23:12.786Z,1006.03
2023-12-23T03:24:12.762Z,1006.03
2023-12-23T03:25:12.726Z,1005.99
2023-12-23T03:26:12.774Z,1005.98
2023-12-23T03:27:12.717Z,1005.97
2023-12-23T03:28:12.706Z,1005.95
2023-12-23T03:29:12.740Z,1005.86
2023-12-23T03:30:12.768Z,1005.83
2023-12-23T03:31:12.669Z,1005.74
2023-12-23T03:32:12.675Z,1005.77
2023-12-23T03:33:12.695Z,1005.78
2023-12-23T03:34:12.640Z,1005.71
2023-12-23T03:35:12.630Z,1005.69
2023-12-23T03:36:12.619Z,1005.78
2023-12-23T03:37:12.609Z,1005.72
2023-12-23T03:38:12.623Z,1005.69
2023-12-23T03:39:12.545Z,1005.68
2023-12-23T03:40:12.526Z,1005.73
2023-12-23T03:41:12.626Z,1005.70
2023-12-23T03:42:12.518Z,1005.74
2023-12-23T03:43:12.478Z,1005.68
2023-12-23T03:44:12.537Z,1005.67
2023-12-23T03:45:12.653Z,1005.71
2023-12-23T03:46:12.459Z,1005.59
2023-12-23T03:47:12.465Z,1005.58
2023-12-23T03:48:12.482Z,1005.65
2023-12-23T03:49:12.435Z,1005.56
2023-12-23T03:50:12.523Z,1005.59
2023-12-23T03:51:12.380Z,1005.64
2023-12-23T03:52:12.367Z,1005.61
2023-12-23T03:53:12.409Z,1005.67
2023-12-23T03:54:12.387Z,1005.66
2023-12-23T03:55:12.352Z,1005.59
2023-12-23T03:56:12.437Z,1005.58
2023-12-23T03:57:12.304Z,1005.53
2023-12-23T03:58:12.349Z,1005.51
2023-12-23T03:59:12.495Z,1005.52
2023-12-23T04:00:12.317Z,1005.52
2023-12-23T04:01:12.302Z,1005.53
2023-12-23T04:02:12.244Z,1005.47
2023-12-23T04:03:12.321Z,1005.57
2023-12-23T04:04:12.223Z,1005.53
2023-12-23T04:05:12.279Z,1005.50
2023-12-23T04:06:12.232Z,1005.45
2023-12-23T04:07:12.163Z,1005.52
2023-12-23T04:08:12.268Z,1005.49
2023-12-23T04:09:12.142Z,1005.47
2023-12-23T04:10:12.145Z,1005.45
2023-12-23T04:11:12.180Z,1005.48
2023-12-23T04:12:12.110Z,1005.38
2023-12-23T04:13:12.115Z,1005.41
2023-12-23T04:14:12.128Z,1005.45
2023-12-23T04:15:12.108Z,1005.41
2023-12-23T04:16:15.083Z,1005.37
2023-12-23T04:17:12.077Z,1005.46
2023-12-23T04:18:12.129Z,1005.43
2023-12-23T04:19:12.143Z,1005.37
2023-12-23T04:20:12.117Z,1005.32
2023-12-23T04:21:12.035Z,1005.33
2023-12-23T04:22:12.033Z,1005.42
2023-12-23T04:23:11.994Z,1005.28
2023-12-23T04:24:11.946Z,1005.31
2023-12-23T04:25:11.924Z,1005.33
2023-12-23T04:26:12.139Z,1005.32
2023-12-23T04:27:11.944Z,1005.34
2023-12-23T04:28:11.896Z,1005.28
2023-12-23T04:29:11.911Z,1005.19
2023-12-23T04:30:11.891Z,1005.34
2023-12-23T04:31:11.931Z,1005.18
2023-12-23T04:32:11.866Z,1005.37
2023-12-23T04:33:11.903Z,1005.23
2023-12-23T04:34:11.880Z,1005.25
2023-12-23T04:35:11.838Z,1005.24
2023-12-23T04:36:11.785Z,1005.25
2023-12-23T04:37:11.777Z,1005.24
2023-12-23T04:38:11.759Z,1005.17
2023-12-23T04:39:11.791Z,1005.13
2023-12-23T04:40:11.713Z,1005.02
2023-12-23T04:41:11.882Z,1005.18
2023-12-23T04:42:11.721Z,1005.18
2023-12-23T04:43:11.722Z,1005.14
2023-12-23T04:44:11.682Z,1005.05
2023-12-23T04:45:11.663Z,1004.97
2023-12-23T04:46:11.653Z,1005.03
2023-12-23T04:47:11.683Z,1004.96
2023-12-23T04:48:11.661Z,1004.88
2023-12-23T04:49:11.601Z,1005.06
2023-12-23T04:50:11.690Z,1005.01
2023-12-23T04:51:11.604Z,1004.95
2023-12-23T04:52:11.558Z,1004.93
2023-12-23T04:53:11.581Z,1004.85
2023-12-23T04:54:11.542Z,1004.83
2023-12-23T04:55:11.561Z,1004.88
2023-12-23T04:56:11.559Z,1004.79
2023-12-23T04:57:11.495Z,1004.74
2023-12-23T04:58:11.468Z,1004.77
2023-12-23T04:59:11.574Z,1004.82
2023-12-23T05:00:11.471Z,1004.87
2023-12-23T05:01:11.550Z,1004.77
2023-12-23T05:02:11.429Z,1004.83
2023-12-23T05:03:11.420Z,1004.81
2023-12-23T05:04:11.450Z,1004.69
2023-12-23T05:05:11.504Z,1004.84
2023-12-23T05:06:11.449Z,1004.85
2023-12-23T05:07:11.393Z,1004.90
2023-12-23T05:08:11.361Z,1004.85
2023-12-23T05:09:11.424Z,1004.81
2023-12-23T05:10:11.313Z,1004.84
2023-12-23T05:11:11.345Z,1004.79
2023-12-23T05:12:11.337Z,1004.74
2023-12-23T05:13:11.286Z,1004.76
2023-12-23T05:14:11.380Z,1004.81
2023-12-23T05:15:11.253Z,1004.73
2023-12-23T05:16:11.247Z,1004.79
2023-12-23T05:17:11.374Z,1004.72
2023-12-23T05:18:11.348Z,1004.66
2023-12-23T05:19:11.318Z,1004.68
2023-12-23T05:20:11.315Z,1004.74
2023-12-23T05:21:11.197Z,1004.69
2023-12-23T05:22:11.162Z,1004.63
2023-12-23T05:23:11.192Z,1004.76
2023-12-23T05:24:11.220Z,1004.63
2023-12-23T05:25:11.118Z,1004.54
2023-12-23T05:26:11.145Z,1004.53
2023-12-23T05:27:11.111Z,1004.56
2023-12-23T05:28:11.119Z,1004.49
2023-12-23T05:29:11.112Z,1004.61
2023-12-23T05:30:11.060Z,1004.53
2023-12-23T05:31:11.038Z,1004.54
2023-12-23T05:32:11.096Z,1004.54
2023-12-23T05:33:11.073Z,1004.52
2023-12-23T05:34:11.022Z,1004.63
2023-12-23T05:35:11.035Z,1004.54
2023-12-23T05:36:10.974Z,1004.44
2023-12-23T05:37:10.993Z,1004.49
2023-12-23T05:38:11.042Z,1004.58
2023-12-23T05:39:10.926Z,1004.63
2023-12-23T05:40:10.893Z,1004.64
2023-12-23T05:41:10.953Z,1004.59
2023-12-23T05:42:10.914Z,1004.56
2023-12-23T05:43:10.926Z,1004.58
2023-12-23T05:44:10.899Z,1004.61
2023-12-23T05:45:10.844Z,1004.70
2023-12-23T05:46:10.856Z,1004.61
2023-12-23T05:47:10.843Z,1004.68
2023-12-23T05:48:10.978Z,1004.71
2023-12-23T05:49:10.830Z,1004.73
2023-12-23T05:50:10.787Z,1004.64
2023-12-23T05:51:10.785Z,1004.63
2023-12-23T05:52:10.816Z,1004.65
2023-12-23T05:53:10.803Z,1004.76
2023-12-23T05:54:10.756Z,1004.72
2023-12-23T05:55:10.775Z,1004.78
2023-12-23T05:56:10.828Z,1004.74
2023-12-23T05:57:10.682Z,1004.72
2023-12-23T05:58:10.681Z,1004.82
2023-12-23T05:59:10.730Z,1004.84
2023-12-23T06:00:13.154Z,1004.78
2023-12-23T06:01:10.725Z,1004.77
2023-12-23T06:02:10.715Z,1004.82
2023-12-23T06:03:10.669Z,1004.75
2023-12-23T06:04:10.608Z,1004.71
2023-12-23T06:05:10.630Z,1004.82
2023-12-23T06:06:10.602Z,1004.76
2023-12-23T06:07:10.571Z,1004.74
2023-12-23T06:08:10.769Z,1004.73
2023-12-23T06:09:10.554Z,1004.75
2023-12-23T06:10:10.529Z,1004.72
2023-12-23T06:11:10.551Z,1004.82
2023-12-23T06:12:10.475Z,1004.74
2023-12-23T06:13:10.461Z,1004.66
2023-12-23T06:14:10.491Z,1004.79
2023-12-23T06:15:10.448Z,1004.74
2023-12-23T06:16:10.421Z,1004.75
2023-12-23T06:17:10.475Z,1004.76
2023-12-23T06:18:10.518Z,1004.79
2023-12-23T06:19:10.522Z,1004.72
2023-12-23T06:20:10.453Z,1004.81
2023-12-23T06:21:10.363Z,1004.73
2023-12-23T06:22:10.331Z,1004.83
2023-12-23T06:23:10.359Z,1004.78
2023-12-23T06:24:10.350Z,1004.64
2023-12-23T06:25:10.308Z,1004.74
2023-12-23T06:26:10.322Z,1004.71
2023-12-23T06:27:10.299Z,1004.71
2023-12-23T06:28:10.280Z,1004.71
2023-12-23T06:29:10.304Z,1004.65
2023-12-23T06:30:10.280Z,1004.63
2023-12-23T06:31:10.239Z,1004.61
2023-12-23T06:32:10.281Z,1004.64
2023-12-23T06:33:10.315Z,1004.65
2023-12-23T06:34:10.337Z,1004.63
2023-12-23T06:35:10.236Z,1004.76
2023-12-23T06:36:10.148Z,1004.68
2023-12-23T06:37:10.150Z,1004.69
2023-12-23T06:38:10.203Z,1004.67
2023-12-23T06:39:10.124Z,1004.80
2023-12-23T06:40:10.145Z,1004.76
2023-12-23T06:41:10.153Z,1004.71
2023-12-23T06:42:10.129Z,1004.70
2023-12-23T06:43:43.667Z,1004.71
2023-12-23T06:44:11.109Z,1004.64
2023-12-23T06:45:10.053Z,1004.72
2023-12-23T06:46:10.032Z,1004.74
2023-12-23T06:47:10.051Z,1004.72
2023-12-23T06:48:10.132Z,1004.71
2023-12-23T06:49:10.115Z,1004.64
2023-12-23T06:50:10.091Z,1004.69
2023-12-23T06:51:09.974Z,1004.68
2023-12-23T06:52:09.987Z,1004.64
2023-12-23T06:53:09.960Z,1004.71
2023-12-23T06:54:09.927Z,1004.65
2023-12-23T06:55:09.906Z,1004.66
2023-12-23T06:56:09.954Z,1004.63
2023-12-23T06:57:09.896Z,1004.58
2023-12-23T06:58:09.868Z,1004.57
2023-12-23T06:59:09.934Z,1004.59
2023-12-23T07:00:09.941Z,1004.54
2023-12-23T07:01:09.912Z,1004.53
2023-12-23T07:02:09.912Z,1004.48
2023-12-23T07:03:09.845Z,1004.55
2023-12-23T07:04:09.917Z,1004.50
2023-12-23T07:05:09.873Z,1004.57
2023-12-23T07:06:09.819Z,1004.60
2023-12-23T07:07:09.795Z,1004.61
2023-12-23T07:08:09.776Z,1004.60
2023-12-23T07:09:09.727Z,1004.45
2023-12-23T07:10:09.785Z,1004.54
2023-12-23T07:11:09.812Z,1004.61
2023-12-23T07:12:09.677Z,1004.52
2023-12-23T07:13:09.682Z,1004.56
2023-12-23T07:14:09.856Z,1004.54
2023-12-23T07:15:09.674Z,1004.58
2023-12-23T07:16:09.633Z,1004.56
2023-12-23T07:17:09.687Z,1004.50
2023-12-23T07:18:09.625Z,1004.64
2023-12-23T07:19:09.581Z,1004.43
2023-12-23T07:20:09.702Z,1004.50
2023-12-23T07:21:09.564Z,1004.54
2023-12-23T07:22:09.541Z,1004.44
2023-12-23T07:23:09.581Z,1004.54
2023-12-23T07:24:09.575Z,1004.52
2023-12-23T07:25:09.512Z,1004.54
2023-12-23T07:26:09.523Z,1004.61
2023-12-23T07:27:09.495Z,1004.45
2023-12-23T07:28:09.487Z,1004.66
2023-12-23T07:29:09.538Z,1004.59
2023-12-23T07:30:09.528Z,1004.69
2023-12-23T07:31:09.451Z,1004.67
2023-12-23T07:32:09.460Z,1004.59
2023-12-23T07:33:09.581Z,1004.65
2023-12-23T07:34:09.560Z,1004.62
2023-12-23T07:35:09.419Z,1004.57
2023-12-23T07:36:09.353Z,1004.62
2023-12-23T07:37:09.336Z,1004.72
2023-12-23T07:38:09.462Z,1004.56
2023-12-23T07:39:09.363Z,1004.55
2023-12-23T07:40:09.309Z,1004.63
2023-12-23T07:41:09.374Z,1004.57
2023-12-23T07:42:09.298Z,1004.60
2023-12-23T07:43:09.275Z,1004.65
2023-12-23T07:44:09.320Z,1004.60
2023-12-23T07:45:09.250Z,1004.63
2023-12-23T07:46:09.300Z,1004.64
2023-12-23T07:47:09.231Z,1004.64
2023-12-23T07:48:09.293Z,1004.68
2023-12-23T07:49:09.293Z,1004.68
2023-12-23T07:50:09.299Z,1004.70
2023-12-23T07:51:09.166Z,1004.69
2023-12-23T07:52:09.198Z,1004.76
2023-12-23T07:53:09.235Z,1004.74
2023-12-23T07:54:09.198Z,1004.72
2023-12-23T07:55:09.114Z,1004.71
2023-12-23T07:56:09.252Z,1004.74
2023-12-23T07:57:09.113Z,1004.68
2023-12-23T07:58:09.112Z,1004.71
2023-12-23T07:59:09.082Z,1004.77
2023-12-23T08:00:09.033Z,1004.76
2023-12-23T08:01:09.066Z,1004.79
2023-12-23T08:02:09.094Z,1004.83
2023-12-23T08:03:08.996Z,1004.79
2023-12-23T08:04:09.039Z,1004.78
2023-12-23T08:05:09.893Z,1004.76
2023-12-23T08:06:09.086Z,1004.76
2023-12-23T08:07:08.934Z,1004.87
2023-12-23T08:08:08.984Z,1004.79
2023-12-23T08:09:08.917Z,1004.80
2023-12-23T08:10:08.948Z,1004.83
2023-12-23T08:11:09.020Z,1004.80
2023-12-23T08:12:08.876Z,1004.85
2023-12-23T08:13:08.885Z,1004.71
2023-12-23T08:14:08.925Z,1004.79
2023-12-23T08:15:08.882Z,1004.78
2023-12-23T08:16:08.866Z,1004.78
2023-12-23T08:17:08.864Z,1004.79
2023-12-23T08:18:08.900Z,1004.77
2023-12-23T08:19:08.813Z,1004.84
2023-12-23T08:20:09.021Z,1004.80
2023-12-23T08:21:08.747Z,1004.75
2023-12-23T08:22:08.748Z,1004.78
2023-12-23T08:23:08.782Z,1004.75
2023-12-23T08:24:08.745Z,1004.74
2023-12-23T08:25:08.752Z,1004.71
2023-12-23T08:26:08.757Z,1004.77
2023-12-23T08:27:08.713Z,1004.75
2023-12-23T08:28:08.697Z,1004.77
2023-12-23T08:29:08.761Z,1004.81
2023-12-23T08:30:08.714Z,1004.71
2023-12-23T08:31:08.715Z,1004.67
2023-12-23T08:32:08.695Z,1004.76
2023-12-23T08:33:08.677Z,1004.80
2023-12-23T08:34:08.664Z,1004.85
2023-12-23T08:35:08.649Z,1004.89
2023-12-23T08:36:08.575Z,1004.74
2023-12-23T08:37:08.558Z,1004.79
2023-12-23T08:38:08.602Z,1004.73
2023-12-23T08:39:08.537Z,1004.78
2023-12-23T08:40:08.518Z,1004.79
2023-12-23T08:41:08.526Z,1004.75
2023-12-23T08:42:08.517Z,1004.79
2023-12-23T08:43:08.520Z,1004.70
2023-12-23T08:44:08.520Z,1004.74
2023-12-23T08:45:08.457Z,1004.74
2023-12-23T08:46:08.463Z,1004.89
2023-12-23T08:47:08.444Z,1004.60
2023-12-23T08:48:08.486Z,1004.72
2023-12-23T08:49:08.468Z,1004.66
2023-12-23T08:50:08.485Z,1004.67
2023-12-23T08:51:08.341Z,1004.84
2023-12-23T08:52:08.401Z,1004.77
2023-12-23T08:53:08.400Z,1004.73
2023-12-23T08:54:08.306Z,1004.77
2023-12-23T08:55:08.301Z,1004.63
2023-12-23T08:56:08.380Z,1004.72
2023-12-23T08:57:08.280Z,1004.72
2023-12-23T08:58:08.288Z,1004.80
2023-12-23T08:59:08.281Z,1004.77
2023-12-23T09:00:08.242Z,1004.85
2023-12-23T09:01:08.278Z,1004.95
2023-12-23T09:02:08.242Z,1004.82
2023-12-23T09:03:08.247Z,1004.88
2023-12-23T09:04:08.166Z,1004.91
2023-12-23T09:05:08.363Z,1004.96
2023-12-23T09:06:08.210Z,1004.97
2023-12-23T09:07:08.174Z,1005.02
2023-12-23T09:08:08.221Z,1005.03
2023-12-23T09:09:08.436Z,1005.00
2023-12-23T09:10:08.131Z,1005.09
2023-12-23T09:11:08.251Z,1005.09
2023-12-23T09:12:08.070Z,1005.07
2023-12-23T09:13:08.076Z,1005.03
2023-12-23T09:14:08.097Z,1005.08
2023-12-23T09:15:08.104Z,1004.98
2023-12-23T09:16:08.076Z,1004.98
2023-12-23T09:17:08.018Z,1004.98
2023-12-23T09:18:08.083Z,1005.13
2023-12-23T09:19:08.129Z,1005.02
2023-12-23T09:20:08.025Z,1005.14
2023-12-23T09:21:07.955Z,1004.94
2023-12-23T09:22:07.946Z,1004.95
2023-12-23T09:23:07.956Z,1005.00
2023-12-23T09:24:07.937Z,1004.95
2023-12-23T09:25:07.938Z,1005.03
2023-12-23T09:26:07.937Z,1004.94
2023-12-23T09:27:07.899Z,1005.00
2023-12-23T09:28:07.857Z,1005.06
2023-12-23T09:29:07.905Z,1005.06
2023-12-23T09:30:07.909Z,1005.04
2023-12-23T09:31:07.807Z,1004.98
2023-12-23T09:32:07.818Z,1005.03
2023-12-23T09:33:07.933Z,1004.93
2023-12-23T09:34:07.882Z,1004.92
2023-12-23T09:35:07.914Z,1005.00
2023-12-23T09:36:07.749Z,1005.06
2023-12-23T09:37:07.737Z,1004.99
2023-12-23T09:38:07.775Z,1005.03
2023-12-23T09:39:07.724Z,1005.00
2023-12-23T09:40:07.683Z,1005.01
2023-12-23T09:41:07.706Z,1005.08
2023-12-23T09:42:07.660Z,1005.11
2023-12-23T09:43:07.690Z,1005.04
2023-12-23T09:44:07.728Z,1005.13
2023-12-23T09:45:07.614Z,1005.06
2023-12-23T09:46:07.649Z,1005.03
2023-12-23T09:47:07.693Z,1005.07
2023-12-23T09:48:07.702Z,1005.16
2023-12-23T09:49:07.890Z,1005.11
2023-12-23T09:50:07.598Z,1005.15
2023-12-23T09:51:07.543Z,1005.13
2023-12-23T09:52:07.536Z,1005.15
2023-12-23T09:53:07.666Z,1005.19
2023-12-23T09:54:07.590Z,1005.24
2023-12-23T09:55:07.508Z,1005.25
2023-12-23T09:56:07.542Z,1005.26
2023-12-23T09:57:07.450Z,1005.27
2023-12-23T09:58:07.460Z,1005.31
2023-12-23T09:59:07.465Z,1005.33
2023-12-23T10:00:07.426Z,1005.32
2023-12-23T10:01:07.424Z,1005.38
2023-12-23T10:02:07.530Z,1005.29
2023-12-23T10:03:07.441Z,1005.37
2023-12-23T10:04:07.385Z,1005.36
2023-12-23T10:05:07.400Z,1005.48
2023-12-23T10:06:07.433Z,1005.40
2023-12-23T10:07:07.361Z,1005.42
2023-12-23T10:08:07.359Z,1005.46
2023-12-23T10:09:07.280Z,1005.46
2023-12-23T10:10:07.316Z,1005.45
2023-12-23T10:11:07.342Z,1005.47
2023-12-23T10:12:07.281Z,1005.55
2023-12-23T10:13:07.250Z,1005.50
2023-12-23T10:14:07.334Z,1005.59
2023-12-23T10:15:07.207Z,1005.61
2023-12-23T10:16:07.232Z,1005.58
2023-12-23T10:17:07.234Z,1005.60
2023-12-23T10:18:07.292Z,1005.61
2023-12-23T10:19:07.232Z,1005.56
2023-12-23T10:20:07.196Z,1005.66
2023-12-23T10:21:07.141Z,1005.76
2023-12-23T10:22:07.128Z,1005.59
2023-12-23T10:23:07.150Z,1005.65
2023-12-23T10:24:07.099Z,1005.66
2023-12-23T10:25:07.089Z,1005.77
2023-12-23T10:26:07.117Z,1005.74
2023-12-23T10:27:07.043Z,1005.77
2023-12-23T10:28:07.093Z,1005.79
2023-12-23T10:29:07.030Z,1005.79
2023-12-23T10:30:07.058Z,1005.82
2023-12-23T10:31:07.009Z,1005.72
2023-12-23T10:32:07.068Z,1005.69
2023-12-23T10:33:07.016Z,1005.74
2023-12-23T10:34:07.054Z,1005.62
2023-12-23T10:35:06.991Z,1005.59
2023-12-23T10:36:06.942Z,1005.69
2023-12-23T10:37:06.918Z,1005.69
2023-12-23T10:38:06.912Z,1005.65
2023-12-23T10:39:06.872Z,1005.65
2023-12-23T10:40:06.951Z,1005.78
2023-12-23T10:41:06.897Z,1005.80
2023-12-23T10:42:06.852Z,1005.82
2023-12-23T10:43:06.845Z,1005.81
2023-12-23T10:44:06.917Z,1005.85
2023-12-23T10:45:06.832Z,1005.81
2023-12-23T10:46:06.818Z,1005.78
2023-12-23T10:47:06.835Z,1005.76
2023-12-23T10:48:06.912Z,1005.79
2023-12-23T10:49:06.869Z,1005.75
2023-12-23T10:50:06.826Z,1005.71
2023-12-23T10:51:06.738Z,1005.90
2023-12-23T10:52:06.766Z,1005.71
2023-12-23T10:53:06.734Z,1005.75
2023-12-23T10:54:06.718Z,1005.67
2023-12-23T10:55:06.695Z,1005.56
2023-12-23T10:56:06.749Z,1005.68
2023-12-23T10:57:06.657Z,1005.72
2023-12-23T10:58:06.627Z,1005.62
2023-12-23T10:59:06.659Z,1005.68
2023-12-23T11:00:06.627Z,1005.66
2023-12-23T11:01:06.652Z,1005.65
2023-12-23T11:02:06.625Z,1005.64
2023-12-23T11:03:06.693Z,1005.68
2023-12-23T11:04:06.600Z,1005.64
2023-12-23T11:05:06.572Z,1005.70
2023-12-23T11:06:06.565Z,1005.65
2023-12-23T11:07:06.497Z,1005.72
2023-12-23T11:08:13.653Z,1005.74
2023-12-23T11:09:07.569Z,1005.66
2023-12-23T11:10:06.480Z,1005.74
2023-12-23T11:11:06.559Z,1005.74
2023-12-23T11:12:06.519Z,1005.68
2023-12-23T11:13:06.443Z,1005.70
2023-12-23T11:14:06.469Z,1005.81
2023-12-23T11:15:06.391Z,1005.78
2023-12-23T11:16:06.388Z,1005.78
2023-12-23T11:17:06.490Z,1005.86
2023-12-23T11:18:08.733Z,1005.86
2023-12-23T11:19:06.620Z,1005.80
2023-12-23T11:20:06.415Z,1005.81
2023-12-23T11:21:06.328Z,1005.77
2023-12-23T11:22:06.325Z,1005.75
2023-12-23T11:23:06.407Z,1005.65
2023-12-23T11:24:06.305Z,1005.60
2023-12-23T11:25:06.269Z,1005.67
2023-12-23T11:26:06.639Z,1005.70
2023-12-23T11:27:06.289Z,1005.74
2023-12-23T11:28:06.260Z,1005.78
2023-12-23T11:29:06.317Z,1005.76
2023-12-23T11:30:06.235Z,1005.67
2023-12-23T11:31:06.272Z,1005.66
2023-12-23T11:32:06.241Z,1005.67
2023-12-23T11:33:06.223Z,1005.72
2023-12-23T11:34:06.263Z,1005.67
2023-12-23T11:35:06.150Z,1005.75
2023-12-23T11:36:06.164Z,1005.79
2023-12-23T11:37:06.118Z,1005.74
2023-12-23T11:38:06.135Z,1005.74
2023-12-23T11:39:06.173Z,1005.71
2023-12-23T11:40:06.082Z,1005.69
2023-12-23T11:41:06.114Z,1005.64
2023-12-23T11:42:06.069Z,1005.60
2023-12-23T11:43:06.051Z,1005.61
2023-12-23T11:44:06.128Z,1005.59
2023-12-23T11:45:06.001Z,1005.55
2023-12-23T11:46:06.020Z,1005.52
2023-12-23T11:47:06.075Z,1005.54
2023-12-23T11:48:05.968Z,1005.57
2023-12-23T11:49:06.028Z,1005.57
2023-12-23T11:50:05.998Z,1005.54
2023-12-23T11:51:05.953Z,1005.50
2023-12-23T11:52:05.918Z,1005.59
2023-12-23T11:53:05.946Z,1005.49
2023-12-23T11:54:05.989Z,1005.54
2023-12-23T11:55:05.882Z,1005.54
2023-12-23T11:56:05.913Z,1005.59
2023-12-23T11:57:05.870Z,1005.56
2023-12-23T11:58:05.838Z,1005.49
2023-12-23T11:59:05.890Z,1005.49
2023-12-23T12:00:05.863Z,1005.41
2023-12-23T12:01:05.893Z,1005.52
2023-12-23T12:02:05.865Z,1005.49
2023-12-23T12:03:05.771Z,1005.46
2023-12-23T12:04:05.823Z,1005.41
2023-12-23T12:05:05.762Z,1005.36